Time;durP1;ratioP1;P1;durP2;ratioP2;P2;SDS_P1;SDS_P2;PMS_P1;PMS_P2;Temp;Humidity;BMP_temperature;BMP_pressure;BME280_temperature;BME280_humidity;BME280_pressure;Samples;Min_cycle;Max_cycle;Signal;HPM_P1;HPM_P2
2023/12/30 00:01:29;;;;;;;30.70;17.60;;;;;;;12.98;49.30;99705.33;108292;1251;73855;-67
2023/12/30 00:03:56;;;;;;;32.10;18.40;;;;;;;13.08;49.08;99703.56;108302;1251;68844;-67
2023/12/30 00:06:24;;;;;;;37.00;17.60;;;;;;;13.01;49.21;99704.30;108305;1251;71352;-66
2023/12/30 00:08:51;;;;;;;28.60;17.00;;;;;;;13.01;49.05;99710.65;108351;1251;60427;-67
2023/12/30 00:11:19;;;;;;;32.20;17.70;;;;;;;12.87;49.27;99712.45;108389;1250;60342;-67
2023/12/30 00:13:46;;;;;;;33.10;18.20;;;;;;;12.78;49.64;99712.73;108369;1251;72437;-68
2023/12/30 00:16:14;;;;;;;32.10;17.30;;;;;;;12.76;49.62;99707.23;108351;1251;70600;-67
2023/12/30 00:18:42;;;;;;;30.00;17.60;;;;;;;12.64;49.93;99706.48;108193;1254;71467;-67
2023/12/30 00:21:10;;;;;;;31.40;18.30;;;;;;;12.45;50.35;99701.79;108224;1251;60314;-67
2023/12/30 00:23:42;;;;;;;32.30;17.60;;;;;;;12.47;50.37;99705.76;108342;1251;60264;-67
2023/12/30 00:26:20;;;;;;;30.00;16.90;;;;;;;12.57;50.33;99705.07;108327;1251;72618;-68
2023/12/30 00:28:48;;;;;;;29.70;18.00;;;;;;;12.67;49.91;99709.59;108424;1257;70594;-67
2023/12/30 00:31:27;;;;;;;30.30;17.00;;;;;;;12.59;50.13;99709.33;108362;1251;70527;-67
2023/12/30 00:33:59;;;;;;;33.20;17.80;;;;;;;12.66;49.99;99709.84;108203;1251;60530;-67
2023/12/30 00:36:27;;;;;;;35.10;19.40;;;;;;;12.68;49.63;99704.80;108156;1251;60692;-65
2023/12/30 00:38:55;;;;;;;29.40;17.00;;;;;;;12.68;49.71;99703.40;108158;1258;72908;-66
2023/12/30 00:41:23;;;;;;;35.40;17.30;;;;;;;12.46;50.16;99707.41;108168;1251;69964;-67
2023/12/30 00:43:51;;;;;;;34.20;18.20;;;;;;;12.55;49.96;99710.79;108218;1256;72591;-67
2023/12/30 00:46:21;;;;;;;31.10;17.70;;;;;;;12.46;50.29;99710.00;108176;1251;60975;-67
2023/12/30 00:48:49;;;;;;;;;;;;;;;12.60;49.82;99703.50;108144;1251;60650;-67
2023/12/30 00:51:25;;;;;;;32.80;18.00;;;;;;;12.55;49.99;99698.29;108209;1251;73718;-67
2023/12/30 00:53:52;;;;;;;31.70;18.10;;;;;;;12.54;50.05;99700.27;108091;1251;69121;-67
2023/12/30 00:56:20;;;;;;;34.70;18.20;;;;;;;12.58;49.68;99699.34;108140;1251;72629;-68
2023/12/30 00:58:47;;;;;;;30.40;17.70;;;;;;;12.48;49.99;99700.39;108361;1251;60278;-68
2023/12/30 01:01:15;;;;;;;33.20;17.70;;;;;;;12.38;50.22;99704.42;108204;1251;60353;-66
2023/12/30 01:03:43;;;;;;;32.90;18.40;;;;;;;12.43;50.04;99705.77;108186;1251;73910;-68
2023/12/30 01:06:10;;;;;;;28.80;17.50;;;;;;;12.38;50.18;99708.48;108293;1251;69968;-66
2023/12/30 01:08:38;;;;;;;31.60;17.00;;;;;;;12.34;50.15;99704.13;107924;1251;190462;-66
2023/12/30 01:12:00;;;;;;;27.80;17.50;;;;;;;10.29;55.32;99712.13;104871;1292;600583;-67
2023/12/30 01:14:28;;;;;;;28.80;16.70;;;;;;;11.24;52.95;99706.27;107204;1267;59480;-67
2023/12/30 01:16:56;;;;;;;28.90;17.00;;;;;;;11.36;52.80;99714.33;107224;1266;59222;-68
2023/12/30 01:19:24;;;;;;;32.10;17.40;;;;;;;11.45;52.63;99714.61;107184;1266;71339;-67
2023/12/30 01:21:52;;;;;;;30.10;16.80;;;;;;;11.25;53.27;99713.80;107286;1267;69343;-67
2023/12/30 01:24:19;;;;;;;33.10;17.40;;;;;;;11.39;52.89;99711.19;107546;1260;72515;-67
2023/12/30 01:26:47;;;;;;;28.20;15.90;;;;;;;11.45;52.49;99714.61;107622;1257;233277;-67
2023/12/30 01:29:15;;;;;;;29.90;17.60;;;;;;;11.32;52.82;99715.38;107824;1257;60090;-67
2023/12/30 01:31:42;;;;;;;30.50;17.80;;;;;;;11.41;52.67;99720.79;107578;1260;71999;-67
2023/12/30 01:34:10;;;;;;;26.20;15.60;;;;;;;11.44;52.52;99724.46;107658;1260;69950;-68
2023/12/30 01:36:38;;;;;;;30.40;16.70;;;;;;;11.60;52.07;99726.40;107669;1260;71455;-68
2023/12/30 01:39:06;;;;;;;26.30;15.70;;;;;;;11.59;52.23;99725.02;107643;1262;59775;-66
2023/12/30 01:41:34;;;;;;;26.30;16.50;;;;;;;11.61;52.17;99719.80;107755;1260;60072;-68
2023/12/30 01:44:03;;;;;;;28.30;15.90;;;;;;;11.62;52.07;99720.84;107514;1258;73262;-67
2023/12/30 01:46:32;;;;;;;25.40;15.90;;;;;;;11.34;52.66;99718.80;107694;1260;69975;-68
2023/12/30 01:49:00;;;;;;;27.10;16.20;;;;;;;11.52;52.13;99716.91;107804;1260;71370;-67
2023/12/30 01:51:27;;;;;;;28.40;16.00;;;;;;;11.53;51.96;99713.89;107826;1259;59651;-68
2023/12/30 01:53:55;;;;;;;28.30;16.40;;;;;;;11.50;52.04;99712.58;107616;1264;60090;-66
2023/12/30 01:56:23;;;;;;;28.40;17.20;;;;;;;11.57;51.91;99714.02;107848;1257;73062;-67
2023/12/30 01:58:51;;;;;;;29.30;15.70;;;;;;;11.65;51.82;99716.66;107511;1257;70105;-66
2023/12/30 02:01:20;;;;;;;25.20;16.10;;;;;;;11.75;51.39;99714.04;107620;1257;71224;-65
2023/12/30 02:03:48;;;;;;;25.90;16.10;;;;;;;11.81;51.10;99709.73;107589;1263;59588;-67
2023/12/30 02:06:16;;;;;;;25.80;15.00;;;;;;;11.68;51.53;99712.09;107647;1257;59653;-67
2023/12/30 02:08:43;;;;;;;33.30;17.80;;;;;;;11.67;51.34;99712.87;107826;1257;72893;-68
2023/12/30 02:11:11;;;;;;;28.80;15.00;;;;;;;11.54;51.61;99715.23;107635;1257;69799;-67
2023/12/30 02:13:42;;;;;;;27.60;16.30;;;;;;;11.52;51.83;99713.77;107817;1257;72646;-67
2023/12/30 02:16:11;;;;;;;33.60;17.80;;;;;;;11.61;51.50;99715.58;107825;1257;60863;-66
2023/12/30 02:18:38;;;;;;;26.90;16.80;;;;;;;11.59;51.26;99717.80;107663;1257;60024;-67
2023/12/30 02:21:06;;;;;;;32.10;17.90;;;;;;;11.44;51.62;99717.29;107745;1257;73197;-67
2023/12/30 02:23:34;;;;;;;33.20;16.80;;;;;;;11.42;51.77;99714.36;107693;1257;69161;-67
2023/12/30 02:26:02;;;;;;;28.10;16.90;;;;;;;11.36;51.89;99714.48;107827;1260;72472;-68
2023/12/30 02:28:29;;;;;;;31.60;17.90;;;;;;;11.37;52.01;99714.27;107850;1260;59666;-67
2023/12/30 02:30:57;;;;;;;27.50;15.70;;;;;;;11.34;51.96;99714.09;107647;1257;59634;-67
2023/12/30 02:33:25;;;;;;;28.10;14.80;;;;;;;11.29;52.16;99715.35;107836;1257;71818;-65
2023/12/30 02:35:52;;;;;;;27.60;17.00;;;;;;;11.40;51.96;99713.60;107934;1257;70776;-67
2023/12/30 02:38:20;;;;;;;26.80;14.70;;;;;;;11.41;51.90;99715.84;107795;1261;70714;-68
2023/12/30 02:40:48;;;;;;;30.00;17.40;;;;;;;11.43;51.69;99717.67;107830;1257;60882;-67
2023/12/30 02:43:15;;;;;;;30.00;16.80;;;;;;;11.38;51.70;99722.15;107961;1257;59917;-66
2023/12/30 02:45:43;;;;;;;27.60;16.30;;;;;;;11.46;51.66;99723.30;107819;1257;73161;-67
2023/12/30 02:48:10;;;;;;;32.50;17.10;;;;;;;11.47;51.61;99721.90;107795;1256;70286;-65
2023/12/30 02:50:38;;;;;;;24.60;14.20;;;;;;;11.43;51.69;99723.45;107826;1257;72902;-66
2023/12/30 02:53:06;;;;;;;32.20;17.10;;;;;;;11.40;51.66;99725.53;107750;1257;60949;-66
2023/12/30 02:55:33;;;;;;;26.80;15.80;;;;;;;11.36;51.74;99721.54;107783;1256;59959;-66
2023/12/30 02:58:01;;;;;;;26.70;14.70;;;;;;;11.39;51.81;99718.23;107823;1260;72990;-66
2023/12/30 03:00:28;;;;;;;28.30;16.50;;;;;;;11.37;51.86;99716.21;107776;1256;70322;-67
2023/12/30 03:02:56;;;;;;;25.60;15.00;;;;;;;11.32;51.98;99708.71;107867;1257;72746;-67
2023/12/30 03:05:23;;;;;;;28.40;16.80;;;;;;;11.32;52.00;99708.17;107873;1257;61053;-68
2023/12/30 03:07:51;;;;;;;28.00;16.40;;;;;;;11.21;52.36;99710.98;107862;1257;59914;-66
2023/12/30 03:10:18;;;;;;;26.20;15.00;;;;;;;11.22;52.51;99715.17;107668;1257;71844;-67
2023/12/30 03:12:46;;;;;;;27.50;15.70;;;;;;;11.20;52.58;99711.20;107731;1258;68703;-68
2023/12/30 03:15:14;;;;;;;27.30;15.20;;;;;;;11.15;52.71;99708.45;107867;1258;71435;-64
2023/12/30 03:17:41;;;;;;;27.90;15.50;;;;;;;11.19;52.71;99707.73;107825;1257;61835;-67
2023/12/30 03:20:10;;;;;;;30.90;16.70;;;;;;;11.22;52.55;99709.91;107696;1257;60025;-67
2023/12/30 03:22:38;;;;;;;24.80;15.40;;;;;;;11.26;52.43;99708.65;107909;1256;72034;-66
2023/12/30 03:25:06;;;;;;;27.80;16.20;;;;;;;11.24;52.46;99708.00;107681;1257;70072;-68
2023/12/30 03:27:36;;;;;;;25.00;15.40;;;;;;;11.29;52.43;99709.54;107840;1257;72546;-67
2023/12/30 03:30:04;;;;;;;29.90;16.40;;;;;;;11.33;52.40;99710.08;107820;1261;59794;-66
2023/12/30 03:32:32;;;;;;;25.10;15.60;;;;;;;11.39;52.07;99706.60;107826;1256;59564;-65
2023/12/30 03:35:00;;;;;;;26.60;14.50;;;;;;;11.33;52.25;99704.81;107855;1257;71846;-66
2023/12/30 03:37:27;;;;;;;26.10;15.30;;;;;;;11.31;52.30;99706.84;107782;1257;69491;-68
2023/12/30 03:39:55;;;;;;;29.30;15.50;;;;;;;11.46;52.06;99706.09;107742;1257;71282;-67
2023/12/30 03:42:22;;;;;;;24.00;15.00;;;;;;;11.50;52.00;99702.76;107795;1257;59670;-66
2023/12/30 03:44:50;;;;;;;31.60;16.40;;;;;;;11.59;51.70;99703.55;107911;1260;59101;-64
2023/12/30 03:47:18;;;;;;;27.30;15.10;;;;;;;11.64;51.53;99696.66;107834;1257;72001;-63
2023/12/30 03:49:46;;;;;;;28.20;16.30;;;;;;;11.50;52.03;99700.97;107819;1257;69925;-66
2023/12/30 03:52:14;;;;;;;30.60;17.40;;;;;;;11.63;51.76;99698.42;107778;1257;72595;-64
2023/12/30 03:54:43;;;;;;;27.90;15.20;;;;;;;11.55;51.88;99696.92;107738;1257;60844;-65
2023/12/30 03:57:13;;;;;;;30.30;16.50;;;;;;;11.41;52.14;99695.48;107801;1258;59949;-68
2023/12/30 03:59:40;;;;;;;25.30;14.90;;;;;;;11.39;52.21;99697.84;107924;1257;73027;-67
2023/12/30 04:02:08;;;;;;;26.30;15.10;;;;;;;11.47;52.02;99701.30;107841;1257;70086;-68
2023/12/30 04:04:36;;;;;;;28.40;16.00;;;;;;;11.57;51.77;99703.13;107835;1259;72763;-67
2023/12/30 04:07:04;;;;;;;25.70;14.90;;;;;;;11.53;51.97;99700.32;107758;1257;61662;-67
2023/12/30 04:09:31;;;;;;;27.00;15.20;;;;;;;11.52;51.90;99703.19;107845;1261;59410;-68
2023/12/30 04:11:58;;;;;;;26.10;15.40;;;;;;;11.45;51.98;99697.55;107839;1261;71849;-69
2023/12/30 04:14:26;;;;;;;26.20;15.10;;;;;;;11.54;51.88;99698.70;107835;1258;69239;-67
2023/12/30 04:16:54;;;;;;;28.70;15.50;;;;;;;11.55;51.81;99701.32;107783;1260;72719;-67
2023/12/30 04:19:24;;;;;;;26.20;14.80;;;;;;;11.75;51.33;99697.70;107800;1257;59614;-68
2023/12/30 04:21:51;;;;;;;24.60;15.30;;;;;;;11.57;51.73;99703.67;107822;1257;60145;-67
2023/12/30 04:24:19;;;;;;;29.80;15.40;;;;;;;11.53;51.80;99703.15;107656;1257;73054;-67
2023/12/30 04:26:46;;;;;;;26.20;14.40;;;;;;;11.54;51.95;99693.80;107626;1261;70169;-66
2023/12/30 04:29:14;;;;;;;26.10;15.10;;;;;;;11.75;51.26;99697.49;107682;1257;72740;-67
2023/12/30 04:31:41;;;;;;;28.60;15.80;;;;;;;11.68;51.27;99700.14;107827;1262;59599;-67
2023/12/30 04:34:09;;;;;;;21.10;13.00;;;;;;;11.59;51.57;99701.13;107652;1257;59154;-67
2023/12/30 04:36:37;;;;;;;26.80;16.20;;;;;;;11.65;51.46;99701.02;107774;1257;72344;-67
2023/12/30 04:39:05;;;;;;;24.90;13.90;;;;;;;11.86;51.14;99701.58;107685;1258;68775;-65
2023/12/30 04:41:33;;;;;;;25.20;14.80;;;;;;;11.91;50.86;99697.84;107763;1257;72187;-67
2023/12/30 04:44:01;;;;;;;29.00;15.80;;;;;;;11.85;50.91;99702.11;107798;1261;59701;-66
2023/12/30 04:46:28;;;;;;;24.70;14.70;;;;;;;11.78;51.20;99702.30;107841;1257;60087;-67
2023/12/30 04:48:56;;;;;;;28.80;15.80;;;;;;;11.80;51.08;99699.59;107714;1258;71834;-68
2023/12/30 04:51:23;;;;;;;26.20;14.30;;;;;;;11.63;51.57;99697.06;107843;1260;69136;-67
2023/12/30 04:53:51;;;;;;;28.00;15.40;;;;;;;11.68;51.53;99702.41;107693;1260;71288;-66
2023/12/30 04:56:18;;;;;;;29.70;16.70;;;;;;;11.74;51.36;99704.07;107705;1257;60992;-68
2023/12/30 04:58:46;;;;;;;25.00;14.50;;;;;;;11.68;51.41;99699.98;107824;1257;59570;-68
2023/12/30 05:01:13;;;;;;;25.30;15.50;;;;;;;11.71;51.44;99701.04;107811;1262;70899;-66
2023/12/30 05:03:42;;;;;;;27.70;15.90;;;;;;;11.87;51.01;99702.77;107780;1257;70293;-67
2023/12/30 05:06:23;;;;;;;28.50;16.00;;;;;;;11.64;51.58;99704.75;107823;1261;72517;-66
2023/12/30 05:08:52;;;;;;;25.90;15.20;;;;;;;11.63;51.57;99697.20;107860;1257;60991;-67
2023/12/30 05:11:20;;;;;;;28.20;14.00;;;;;;;11.69;51.46;99693.77;107863;1257;59697;-67
2023/12/30 05:13:48;;;;;;;24.50;14.70;;;;;;;11.47;52.01;99693.24;107805;1261;71426;-67
2023/12/30 05:16:15;;;;;;;29.10;15.70;;;;;;;11.48;51.91;99693.52;107768;1261;68849;-67
2023/12/30 05:18:43;;;;;;;27.90;14.90;;;;;;;11.30;52.44;99688.23;107758;1259;71387;-66
2023/12/30 05:21:13;;;;;;;26.40;16.30;;;;;;;11.39;52.26;99684.64;107774;1258;60542;-67
2023/12/30 05:23:43;;;;;;;25.60;14.90;;;;;;;11.44;52.09;99679.11;107625;1262;60030;-68
2023/12/30 05:26:14;;;;;;;25.40;15.20;;;;;;;11.43;52.12;99680.25;107962;1263;72961;-67
2023/12/30 05:28:41;;;;;;;26.90;15.20;;;;;;;11.55;51.82;99680.54;107833;1260;70427;-67
2023/12/30 05:31:09;;;;;;;28.30;14.80;;;;;;;11.62;51.68;99679.50;107845;1259;71429;-66
2023/12/30 05:33:36;;;;;;;23.20;14.60;;;;;;;11.67;51.58;99676.96;107731;1257;60741;-66
2023/12/30 05:36:05;;;;;;;25.80;15.40;;;;;;;11.55;51.76;99684.23;107590;1257;60461;-65
2023/12/30 05:38:32;;;;;;;22.90;14.00;;;;;;;11.67;51.49;99685.44;107921;1256;73806;-67
2023/12/30 05:41:00;;;;;;;27.30;15.90;;;;;;;11.83;50.91;99688.17;107994;1259;70569;-66
2023/12/30 05:43:27;;;;;;;26.40;15.60;;;;;;;11.82;50.78;99686.63;107895;1254;72743;-66
2023/12/30 05:45:55;;;;;;;33.90;18.10;;;;;;;11.74;50.99;99689.31;107889;1254;60858;-64
2023/12/30 05:48:22;;;;;;;31.00;19.30;;;;;;;11.71;50.89;99694.55;107999;1258;60354;-65
2023/12/30 05:50:50;;;;;;;26.00;14.40;;;;;;;11.63;50.94;99701.64;107904;1254;72514;-65
2023/12/30 05:53:18;;;;;;;35.90;17.90;;;;;;;11.65;50.84;99706.42;107913;1254;68947;-65
2023/12/30 05:55:45;;;;;;;29.20;17.70;;;;;;;11.65;50.78;99708.40;107893;1257;72698;-67
2023/12/30 05:58:13;;;;;;;26.00;15.20;;;;;;;11.65;50.78;99714.92;107882;1254;60533;-66
2023/12/30 06:00:41;;;;;;;30.20;17.20;;;;;;;11.56;50.91;99714.42;107939;1254;60313;-66
2023/12/30 06:03:08;;;;;;;33.40;17.90;;;;;;;11.57;51.12;99713.16;107966;1260;72645;-67
2023/12/30 06:05:36;;;;;;;32.30;18.70;;;;;;;11.58;50.98;99714.88;107974;1254;70304;-67
2023/12/30 06:08:04;;;;;;;34.40;19.40;;;;;;;11.51;51.00;99718.88;107965;1257;71439;-67
2023/12/30 06:10:32;;;;;;;29.60;17.50;;;;;;;11.48;51.21;99721.50;107939;1254;60972;-67
2023/12/30 06:12:59;;;;;;;37.10;19.70;;;;;;;11.49;51.25;99722.84;108018;1254;60347;-67
2023/12/30 06:15:27;;;;;;;30.00;17.00;;;;;;;11.51;51.31;99731.20;107911;1254;73096;-66
2023/12/30 06:17:55;;;;;;;40.30;22.70;;;;;;;11.43;51.48;99738.60;107987;1254;70285;-67
2023/12/30 06:20:23;;;;;;;34.80;20.10;;;;;;;11.44;51.42;99734.33;107891;1258;71398;-66
2023/12/30 06:22:50;;;;;;;36.10;20.20;;;;;;;11.37;51.58;99736.42;107947;1254;60534;-67
2023/12/30 06:25:18;;;;;;;35.90;20.60;;;;;;;11.34;51.71;99730.59;107897;1254;60372;-68
2023/12/30 06:27:46;;;;;;;44.30;24.10;;;;;;;11.41;51.60;99726.95;107975;1254;72770;-66
2023/12/30 06:30:14;;;;;;;42.10;24.60;;;;;;;11.52;51.45;99730.46;107909;1257;69022;-66
2023/12/30 06:32:41;;;;;;;51.60;27.70;;;;;;;11.44;51.69;99732.23;107928;1260;72684;-66
2023/12/30 06:35:09;;;;;;;45.40;26.10;;;;;;;11.29;52.12;99738.73;107909;1257;60024;-67
2023/12/30 06:37:37;;;;;;;51.30;26.00;;;;;;;11.10;52.71;99738.54;107916;1254;62526;-63
2023/12/30 06:40:06;;;;;;;56.30;27.80;;;;;;;11.28;52.33;99742.66;107952;1254;73904;-65
2023/12/30 06:42:33;;;;;;;52.60;27.60;;;;;;;11.22;52.51;99742.04;107972;1254;71491;-66
2023/12/30 06:45:01;;;;;;;56.30;30.10;;;;;;;11.20;52.40;99746.67;107889;1254;74936;-67
2023/12/30 06:47:28;;;;;;;53.40;26.60;;;;;;;11.11;52.40;99750.78;107990;1257;60825;-68
2023/12/30 06:49:56;;;;;;;40.00;22.50;;;;;;;11.24;52.00;99750.71;107872;1254;59030;-67
2023/12/30 06:52:24;;;;;;;41.40;23.80;;;;;;;11.14;52.12;99749.61;107998;1254;73872;-67
2023/12/30 06:54:53;;;;;;;38.90;22.80;;;;;;;11.04;52.42;99748.80;107998;1254;69336;-66
2023/12/30 06:57:36;;;;;;;44.80;23.70;;;;;;;11.05;52.41;99746.14;108016;1254;72629;-66
2023/12/30 07:00:05;;;;;;;41.20;22.30;;;;;;;11.06;52.43;99741.00;107928;1257;60453;-68
2023/12/30 07:02:34;;;;;;;43.20;22.80;;;;;;;11.10;52.58;99741.34;108000;1254;60419;-68
2023/12/30 07:05:01;;;;;;;43.70;24.20;;;;;;;11.28;52.14;99735.79;108109;1254;73776;-67
2023/12/30 07:07:29;;;;;;;42.00;23.20;;;;;;;11.19;52.31;99737.61;107910;1259;68927;-67
2023/12/30 07:09:56;;;;;;;38.10;22.00;;;;;;;11.16;52.53;99738.43;107899;1259;71195;-67
2023/12/30 07:12:24;;;;;;;47.40;25.10;;;;;;;11.38;52.08;99735.98;108057;1256;60925;-67
2023/12/30 07:14:51;;;;;;;44.90;23.10;;;;;;;11.44;51.87;99741.16;107933;1254;60326;-67
2023/12/30 07:17:19;;;;;;;60.60;30.10;;;;;;;11.47;52.01;99740.67;107947;1254;74484;-68
2023/12/30 07:19:46;;;;;;;59.30;29.60;;;;;;;11.70;51.58;99739.98;108150;1254;70087;-67
2023/12/30 07:22:15;;;;;;;44.90;26.30;;;;;;;11.97;51.31;99735.52;107927;1254;71482;-65
2023/12/30 07:24:42;;;;;;;54.90;29.10;;;;;;;12.11;51.24;99730.10;107881;1254;60898;-67
2023/12/30 07:27:10;;;;;;;51.90;28.70;;;;;;;12.29;51.02;99736.77;107863;1259;60274;-67
2023/12/30 07:29:37;;;;;;;46.10;26.30;;;;;;;12.49;50.65;99736.64;107902;1254;73799;-66
2023/12/30 07:32:05;;;;;;;51.00;27.80;;;;;;;12.77;50.14;99742.06;107955;1254;69996;-67
2023/12/30 07:34:32;;;;;;;44.40;23.40;;;;;;;13.12;49.58;99743.69;107969;1260;71406;-69
2023/12/30 07:37:01;;;;;;;52.70;26.90;;;;;;;13.37;48.30;99740.45;107985;1254;60716;-69
2023/12/30 07:39:29;;;;;;;46.80;26.70;;;;;;;13.66;47.62;99739.38;107771;1260;60370;-67
2023/12/30 07:41:56;;;;;;;42.10;23.20;;;;;;;13.91;47.15;99739.41;107874;1260;73303;-67
2023/12/30 07:44:24;;;;;;;47.80;24.70;;;;;;;14.15;46.37;99739.79;107907;1254;70145;-69
2023/12/30 07:46:51;;;;;;;44.70;24.70;;;;;;;14.15;45.88;99743.70;107867;1254;73230;-69
2023/12/30 07:49:19;;;;;;;48.30;24.50;;;;;;;13.93;46.00;99749.01;107866;1258;60898;-68
2023/12/30 07:51:47;;;;;;;47.70;25.00;;;;;;;13.98;46.04;99752.07;107977;1254;60348;-68
2023/12/30 07:54:15;;;;;;;42.20;23.30;;;;;;;14.04;46.04;99744.62;107921;1257;74308;-67
2023/12/30 07:56:43;;;;;;;43.20;23.60;;;;;;;14.04;46.13;99744.83;107945;1254;69928;-68
2023/12/30 07:59:12;;;;;;;40.80;22.30;;;;;;;13.99;45.68;99748.29;107883;1260;72672;-68
2023/12/30 08:01:46;;;;;;;42.50;22.80;;;;;;;13.62;46.21;99746.32;108017;1254;60785;-68
2023/12/30 08:04:13;;;;;;;42.40;22.80;;;;;;;13.77;46.12;99748.85;107888;1254;60916;-68
2023/12/30 08:06:41;;;;;;;41.40;21.90;;;;;;;13.65;46.31;99749.35;107897;1254;72591;-68
2023/12/30 08:09:09;;;;;;;41.30;21.60;;;;;;;13.90;46.20;99746.69;107918;1254;69987;-67
2023/12/30 08:11:37;;;;;;;40.20;20.70;;;;;;;14.05;46.17;99745.80;107893;1254;71441;-66
2023/12/30 08:14:08;;;;;;;38.90;21.20;;;;;;;14.19;45.70;99744.65;107904;1254;61136;-68
2023/12/30 08:16:36;;;;;;;41.50;23.20;;;;;;;14.22;45.51;99744.15;108032;1259;60473;-67
2023/12/30 08:19:03;;;;;;;38.30;21.00;;;;;;;14.43;45.41;99751.60;107944;1257;72267;-66
2023/12/30 08:21:31;;;;;;;38.40;21.10;;;;;;;14.71;45.00;99753.98;108050;1254;70526;-68
2023/12/30 08:24:00;;;;;;;43.70;23.80;;;;;;;15.03;44.23;99746.60;107989;1254;72737;-69
2023/12/30 08:26:28;;;;;;;35.80;20.20;;;;;;;15.13;43.83;99735.02;108005;1259;60297;-67
2023/12/30 08:28:55;;;;;;;36.60;21.20;;;;;;;15.16;43.50;99732.17;107925;1254;60390;-69
2023/12/30 08:31:23;;;;;;;39.00;22.00;;;;;;;15.07;43.36;99727.23;107982;1254;72514;-68
2023/12/30 08:33:50;;;;;;;39.50;21.30;;;;;;;14.98;43.90;99723.00;108024;1254;69223;-68
2023/12/30 08:36:18;;;;;;;40.10;23.70;;;;;;;14.87;44.09;99722.81;107906;1254;71313;-66
2023/12/30 08:38:45;;;;;;;42.80;20.90;;;;;;;14.70;44.52;99719.40;108012;1254;60910;-67
2023/12/30 08:41:14;;;;;;;43.70;22.40;;;;;;;14.65;44.63;99717.77;107985;1254;61000;-66
2023/12/30 08:43:43;;;;;;;40.90;21.00;;;;;;;14.64;44.78;99718.90;108044;1254;73972;-67
2023/12/30 08:46:11;;;;;;;34.70;20.40;;;;;;;14.60;44.90;99716.84;108020;1254;70014;-66
2023/12/30 08:48:39;;;;;;;45.30;23.30;;;;;;;14.74;44.65;99708.03;108134;1254;71244;-68
2023/12/30 08:51:06;;;;;;;48.40;21.40;;;;;;;14.72;44.69;99702.52;108005;1254;60514;-67
2023/12/30 08:53:34;;;;;;;39.30;19.70;;;;;;;14.87;44.71;99696.48;108057;1254;60334;-67
2023/12/30 08:56:02;;;;;;;41.50;20.00;;;;;;;14.95;44.27;99694.96;108181;1253;72645;-67
2023/12/30 08:58:30;;;;;;;43.10;19.60;;;;;;;14.85;44.55;99691.49;108076;1254;69967;-67
2023/12/30 09:00:57;;;;;;;42.90;20.80;;;;;;;14.65;44.80;99686.36;108013;1254;71157;-67
2023/12/30 09:03:25;;;;;;;45.00;21.80;;;;;;;14.65;44.75;99686.70;108040;1254;60900;-67
2023/12/30 09:05:52;;;;;;;37.80;18.70;;;;;;;14.92;44.70;99686.10;108064;1254;60428;-67
2023/12/30 09:08:20;;;;;;;38.00;20.50;;;;;;;15.11;44.13;99687.94;108107;1254;73918;-68
2023/12/30 09:10:47;;;;;;;34.90;19.60;;;;;;;14.99;44.40;99682.66;108174;1254;70324;-67
2023/12/30 09:13:15;;;;;;;36.50;20.10;;;;;;;14.99;44.40;99677.40;108062;1254;74895;-68
2023/12/30 09:15:43;;;;;;;38.30;20.70;;;;;;;15.04;44.35;99669.27;108100;1254;60876;-68
2023/12/30 09:18:10;;;;;;;37.00;18.80;;;;;;;14.99;44.65;99669.77;108102;1254;60241;-66
2023/12/30 09:20:42;;;;;;;38.50;19.00;;;;;;;15.03;44.21;99667.06;108113;1254;72906;-68
2023/12/30 09:23:09;;;;;;;37.60;19.00;;;;;;;14.83;44.69;99671.44;108050;1254;68932;-67
2023/12/30 09:25:37;;;;;;;38.70;19.30;;;;;;;14.77;45.00;99664.38;108023;1254;72852;-68
2023/12/30 09:28:05;;;;;;;57.00;21.80;;;;;;;14.78;44.88;99662.37;108156;1255;61420;-69
2023/12/30 09:30:32;;;;;;;39.50;18.80;;;;;;;14.78;45.15;99660.80;107995;1254;60077;-67
2023/12/30 09:33:00;;;;;;;44.30;19.30;;;;;;;15.06;44.54;99657.66;108150;1254;73919;-69
2023/12/30 09:35:28;;;;;;;48.30;19.60;;;;;;;15.07;44.39;99655.09;108100;1254;70282;-68
2023/12/30 09:37:56;;;;;;;38.10;19.60;;;;;;;15.02;44.70;99658.60;108013;1254;73349;-67
2023/12/30 09:40:23;;;;;;;39.30;20.60;;;;;;;15.22;44.31;99654.88;108068;1254;60332;-69
2023/12/30 09:42:51;;;;;;;46.00;22.10;;;;;;;15.26;44.34;99652.83;108068;1254;60020;-68
2023/12/30 09:45:19;;;;;;;39.30;20.30;;;;;;;15.32;44.26;99650.36;107839;1254;73683;-68
2023/12/30 09:47:47;;;;;;;50.20;22.30;;;;;;;15.44;43.90;99650.61;108136;1254;70372;-68
2023/12/30 09:50:14;;;;;;;47.50;22.00;;;;;;;15.43;44.12;99642.58;107967;1257;72696;-68
2023/12/30 09:52:42;;;;;;;42.50;22.60;;;;;;;15.46;44.00;99644.16;108105;1254;61560;-68
2023/12/30 09:55:10;;;;;;;38.40;19.40;;;;;;;15.55;43.76;99641.21;108032;1254;60318;-67
2023/12/30 09:57:37;;;;;;;40.80;20.70;;;;;;;15.46;44.12;99638.29;108020;1254;75433;-68
2023/12/30 10:00:09;;;;;;;40.80;22.00;;;;;;;15.70;43.33;99632.30;107962;1254;70911;-68
2023/12/30 10:02:37;;;;;;;48.30;22.10;;;;;;;15.67;43.69;99633.01;108223;1254;72669;-68
2023/12/30 10:05:05;;;;;;;45.10;23.10;;;;;;;15.75;43.57;99634.98;107978;1254;61062;-68
2023/12/30 10:07:34;;;;;;;44.30;22.90;;;;;;;15.95;43.10;99633.01;108086;1254;60273;-67
2023/12/30 10:10:01;;;;;;;40.40;20.20;;;;;;;15.86;43.39;99635.73;108074;1254;73971;-68
2023/12/30 10:12:29;;;;;;;38.90;21.10;;;;;;;15.81;43.21;99633.92;108065;1254;70506;-67
2023/12/30 10:14:56;;;;;;;38.30;19.50;;;;;;;15.91;43.25;99628.64;107822;1254;72698;-67
2023/12/30 10:17:25;;;;;;;46.60;21.20;;;;;;;15.84;43.41;99626.84;108133;1254;60919;-67
2023/12/30 10:19:53;;;;;;;39.40;20.70;;;;;;;15.86;43.24;99621.54;108145;1254;60011;-68
2023/12/30 10:22:21;;;;;;;46.90;20.20;;;;;;;15.81;43.59;99615.68;108076;1254;72628;-68
2023/12/30 10:24:48;;;;;;;49.60;22.00;;;;;;;15.87;43.54;99607.86;108108;1254;68332;-68
2023/12/30 10:27:16;;;;;;;45.70;21.80;;;;;;;16.03;43.02;99604.80;108036;1254;71185;-68
2023/12/30 10:29:44;;;;;;;51.00;22.40;;;;;;;15.84;43.84;99600.42;108164;1259;60798;-64
2023/12/30 10:32:21;;;;;;;50.40;22.40;;;;;;;15.94;43.53;99603.47;107892;1254;60424;-65
2023/12/30 10:34:49;;;;;;;42.50;19.90;;;;;;;15.88;43.72;99602.62;107932;1254;71659;-66
2023/12/30 10:37:16;;;;;;;49.30;21.10;;;;;;;15.94;43.57;99601.55;108030;1254;69185;-67
2023/12/30 10:39:44;;;;;;;45.20;19.10;;;;;;;16.06;43.30;99605.14;107865;1254;72661;-68
2023/12/30 10:42:13;;;;;;;48.50;20.60;;;;;;;16.05;43.49;99599.20;107892;1254;62976;-67
2023/12/30 10:44:40;;;;;;;35.80;15.70;;;;;;;16.18;43.08;99598.30;107926;1254;60581;-68
2023/12/30 10:47:08;;;;;;;37.50;18.30;;;;;;;16.21;42.72;99595.92;107938;1255;73109;-67
2023/12/30 10:49:35;;;;;;;41.50;19.90;;;;;;;16.20;42.92;99592.83;107964;1254;70206;-68
2023/12/30 10:52:03;;;;;;;46.60;20.90;;;;;;;16.41;42.56;99588.36;107750;1254;72556;-69
2023/12/30 10:54:34;;;;;;;32.90;16.40;;;;;;;16.44;42.56;99591.88;107828;1254;61053;-68
2023/12/30 10:57:02;;;;;;;28.20;15.30;;;;;;;16.43;42.34;99593.23;108080;1254;60093;-67
2023/12/30 10:59:30;;;;;;;28.10;14.50;;;;;;;16.58;42.02;99590.73;108049;1254;74000;-67
2023/12/30 11:01:58;;;;;;;23.70;13.00;;;;;;;16.79;41.87;99586.46;107959;1254;70068;-68
2023/12/30 11:04:25;;;;;;;22.80;13.10;;;;;;;16.87;41.49;99585.30;107801;1254;72670;-68
2023/12/30 11:06:57;;;;;;;25.40;13.90;;;;;;;16.69;41.75;99581.48;107857;1257;60566;-67
2023/12/30 11:09:25;;;;;;;;;;;;;;;16.66;41.90;99581.11;107902;1254;59161;-68
2023/12/30 11:11:52;;;;;;;24.10;12.90;;;;;;;16.54;41.97;99580.70;108033;1254;73950;-69
2023/12/30 11:14:21;;;;;;;18.70;11.90;;;;;;;16.49;42.27;99577.20;108060;1254;69396;-68